createdAt,value
2022-10-11T00:01:18.955Z,2.25
2022-10-11T00:03:46.323Z,1.52
2022-10-11T00:06:13.621Z,1.80
2022-10-11T00:08:40.960Z,2.47
2022-10-11T00:11:08.976Z,1.70
2022-10-11T00:13:36.555Z,1.80
2022-10-11T00:16:09.046Z,1.95
2022-10-11T00:18:37.055Z,1.83
2022-10-11T00:21:07.512Z,1.90
2022-10-11T00:23:35.409Z,1.98
2022-10-11T00:26:05.630Z,1.90
2022-10-11T00:28:33.419Z,2.10
2022-10-11T00:31:00.769Z,1.95
2022-10-11T00:33:28.554Z,2.00
2022-10-11T00:35:55.754Z,2.10
2022-10-11T00:38:23.164Z,2.40
2022-10-11T00:40:50.323Z,2.00
2022-10-11T00:43:21.133Z,1.90
2022-10-11T00:45:57.503Z,2.38
2022-10-11T00:48:38.595Z,2.22
2022-10-11T00:51:13.384Z,2.17
2022-10-11T00:53:41.485Z,1.88
2022-10-11T00:56:17.662Z,1.98
2022-10-11T00:58:45.192Z,2.40
2022-10-11T01:01:12.645Z,2.35
2022-10-11T01:03:40.851Z,2.33
2022-10-11T01:06:09.371Z,2.40
2022-10-11T01:08:37.138Z,2.05
2022-10-11T01:11:04.633Z,2.47
2022-10-11T01:13:53.331Z,2.13
2022-10-11T01:16:28.728Z,3.42
2022-10-11T01:19:20.969Z,3.25
2022-10-11T01:22:09.297Z,2.20
2022-10-11T01:24:42.349Z,2.15
2022-10-11T01:28:02.252Z,2.40
2022-10-11T01:30:36.833Z,2.70
2022-10-11T01:33:10.000Z,2.10
2022-10-11T01:35:46.736Z,2.20
2022-10-11T01:38:22.174Z,2.50
2022-10-11T01:41:12.356Z,2.10
2022-10-11T01:43:41.624Z,2.22
2022-10-11T01:46:10.184Z,2.30
2022-10-11T01:48:52.523Z,2.33
2022-10-11T01:51:27.593Z,2.50
2022-10-11T01:54:13.009Z,2.65
2022-10-11T01:57:08.041Z,2.05
2022-10-11T02:00:04.516Z,2.67
2022-10-11T02:02:53.049Z,2.47
2022-10-11T02:05:40.580Z,2.67
2022-10-11T02:08:37.287Z,2.30
2022-10-11T02:11:11.852Z,2.22
2022-10-11T02:13:45.285Z,2.60
2022-10-11T02:16:16.695Z,2.33
2022-10-11T02:18:50.282Z,3.00
2022-10-11T02:21:22.275Z,3.10
2022-10-11T02:24:00.518Z,2.97
2022-10-11T02:26:31.520Z,2.60
2022-10-11T02:29:04.151Z,2.53
2022-10-11T02:31:34.982Z,2.50
2022-10-11T02:34:22.551Z,2.53
2022-10-11T02:37:15.656Z,2.60
2022-10-11T02:39:45.661Z,2.90
2022-10-11T02:42:21.672Z,2.70
2022-10-11T02:45:05.901Z,2.70
2022-10-11T02:47:33.866Z,2.78
2022-10-11T02:50:01.854Z,2.40
2022-10-11T02:52:29.172Z,2.63
2022-10-11T02:54:56.525Z,2.35
2022-10-11T02:57:23.718Z,2.92
2022-10-11T02:59:50.860Z,2.50
2022-10-11T03:02:18.050Z,2.78
2022-10-11T03:04:45.327Z,4.57
2022-10-11T03:07:12.559Z,3.03
2022-10-11T03:09:39.839Z,2.40
2022-10-11T03:12:07.267Z,2.70
2022-10-11T03:14:34.431Z,2.70
2022-10-11T03:17:17.568Z,2.90
2022-10-11T03:19:49.320Z,2.40
2022-10-11T03:22:16.689Z,2.75
2022-10-11T03:24:43.841Z,2.65
2022-10-11T03:27:11.414Z,3.53
2022-10-11T03:29:38.639Z,2.97
2022-10-11T03:32:06.015Z,3.17
2022-10-11T03:34:33.232Z,2.92
2022-10-11T03:37:00.376Z,2.60
2022-10-11T03:39:27.594Z,2.65
2022-10-11T03:41:54.837Z,2.50
2022-10-11T03:44:22.072Z,2.83
2022-10-11T03:46:49.216Z,2.47
2022-10-11T03:49:16.472Z,2.92
2022-10-11T03:51:43.632Z,3.00
2022-10-11T03:54:10.829Z,3.05
2022-10-11T03:56:38.034Z,2.58
2022-10-11T03:59:05.209Z,2.65
2022-10-11T04:01:37.694Z,2.90
2022-10-11T04:04:06.018Z,3.33
2022-10-11T04:06:33.651Z,2.78
2022-10-11T04:09:01.309Z,3.40
2022-10-11T04:11:28.573Z,5.55
2022-10-11T04:13:55.813Z,3.25
2022-10-11T04:16:23.118Z,2.65
2022-10-11T04:18:50.364Z,2.60
2022-10-11T04:21:18.126Z,2.65
2022-10-11T04:23:45.312Z,3.15
2022-10-11T04:26:12.538Z,3.17
2022-10-11T04:28:39.740Z,2.97
2022-10-11T04:31:08.137Z,2.60
2022-10-11T04:33:35.373Z,4.10
2022-10-11T04:36:02.935Z,4.45
2022-10-11T04:38:30.351Z,3.30
2022-10-11T04:41:09.752Z,3.38
2022-10-11T04:43:37.221Z,3.33
2022-10-11T04:46:05.891Z,3.72
2022-10-11T04:48:33.327Z,3.53
2022-10-11T04:51:00.439Z,3.00
2022-10-11T04:53:27.641Z,2.40
2022-10-11T04:56:04.234Z,2.85
2022-10-11T04:58:33.913Z,3.15
2022-10-11T05:01:01.338Z,2.70
2022-10-11T05:03:28.959Z,3.40
2022-10-11T05:05:56.197Z,2.45
2022-10-11T05:08:23.575Z,2.90
2022-10-11T05:11:01.962Z,3.13
2022-10-11T05:13:29.893Z,2.83
2022-10-11T05:15:57.816Z,2.90
2022-10-11T05:18:25.401Z,3.03
2022-10-11T05:21:10.472Z,2.70
2022-10-11T05:23:37.769Z,2.47
2022-10-11T05:26:05.393Z,4.15
2022-10-11T05:28:33.254Z,2.97
2022-10-11T05:31:00.586Z,2.80
2022-10-11T05:33:28.007Z,2.85
2022-10-11T05:35:55.416Z,3.15
2022-10-11T05:38:24.014Z,2.65
2022-10-11T05:40:51.553Z,2.97
2022-10-11T05:43:18.836Z,3.05
2022-10-11T05:45:46.592Z,2.83
2022-10-11T05:48:13.687Z,3.03
2022-10-11T05:50:41.053Z,2.70
2022-10-11T05:53:08.258Z,2.70
2022-10-11T05:55:40.800Z,3.15
2022-10-11T05:58:10.886Z,2.88
2022-10-11T06:00:38.293Z,2.80
2022-10-11T06:03:09.074Z,3.05
2022-10-11T06:05:36.389Z,2.72
2022-10-11T06:08:06.212Z,2.83
2022-10-11T06:10:34.043Z,3.15
2022-10-11T06:13:01.427Z,4.10
2022-10-11T06:15:28.894Z,3.00
2022-10-11T06:17:56.440Z,3.22
2022-10-11T06:20:23.810Z,2.95
2022-10-11T06:22:50.979Z,3.33
2022-10-11T06:25:18.254Z,3.08
2022-10-11T06:27:45.744Z,3.05
2022-10-11T06:30:13.108Z,2.78
2022-10-11T06:32:40.257Z,3.03
2022-10-11T06:35:07.797Z,4.85
2022-10-11T06:37:34.903Z,5.93
2022-10-11T06:40:02.305Z,3.20
2022-10-11T06:42:29.435Z,3.05
2022-10-11T06:44:56.564Z,3.33
2022-10-11T06:47:23.708Z,3.70
2022-10-11T06:49:50.828Z,4.30
2022-10-11T06:52:18.034Z,3.40
2022-10-11T06:54:45.854Z,3.47
2022-10-11T06:57:13.062Z,3.58
2022-10-11T06:59:40.249Z,3.10
2022-10-11T07:02:22.814Z,4.18
2022-10-11T07:04:50.058Z,4.13
2022-10-11T07:07:17.294Z,3.30
2022-10-11T07:09:44.475Z,3.47
2022-10-11T07:12:12.013Z,4.03
2022-10-11T07:14:39.213Z,4.20
2022-10-11T07:17:06.339Z,4.10
2022-10-11T07:19:33.713Z,3.45
2022-10-11T07:22:00.870Z,5.85
2022-10-11T07:24:28.123Z,4.50
2022-10-11T07:26:55.298Z,4.38
2022-10-11T07:29:22.450Z,4.00
2022-10-11T07:31:49.754Z,4.35
2022-10-11T07:34:17.073Z,4.93
2022-10-11T07:36:44.254Z,4.43
2022-10-11T07:39:11.380Z,4.90
2022-10-11T07:41:44.648Z,4.28
2022-10-11T07:44:13.181Z,5.32
2022-10-11T07:46:40.413Z,8.73
2022-10-11T07:49:07.517Z,4.55
2022-10-11T07:51:34.646Z,5.22
2022-10-11T07:54:07.009Z,5.18
2022-10-11T07:56:35.302Z,4.95
2022-10-11T07:59:05.935Z,4.53
2022-10-11T08:01:33.932Z,4.78
2022-10-11T08:04:01.227Z,4.55
2022-10-11T08:06:32.792Z,4.28
2022-10-11T08:09:01.566Z,4.50
2022-10-11T08:11:37.298Z,4.68
2022-10-11T08:14:09.178Z,4.25
2022-10-11T08:16:37.053Z,4.68
2022-10-11T08:19:04.418Z,4.70
2022-10-11T08:21:32.481Z,4.70
2022-10-11T08:23:59.801Z,4.32
2022-10-11T08:26:27.066Z,4.72
2022-10-11T08:28:54.240Z,5.57
2022-10-11T08:31:21.641Z,5.40
2022-10-11T08:33:49.150Z,5.20
2022-10-11T08:36:16.316Z,5.10
2022-10-11T08:38:43.570Z,5.82
2022-10-11T08:41:20.962Z,5.40
2022-10-11T08:44:13.053Z,6.25
2022-10-11T08:46:43.293Z,5.25
2022-10-11T08:49:14.994Z,5.47
2022-10-11T08:51:56.653Z,5.90
2022-10-11T08:55:08.394Z,5.47
2022-10-11T08:57:37.553Z,7.97
2022-10-11T09:00:14.018Z,7.50
2022-10-11T09:03:07.482Z,5.70
2022-10-11T09:05:42.279Z,6.47
2022-10-11T09:08:24.043Z,5.90
2022-10-11T09:11:29.429Z,6.30
2022-10-11T09:14:26.699Z,7.10
2022-10-11T09:17:31.276Z,6.47
2022-10-11T09:20:08.129Z,6.18
2022-10-11T09:23:10.179Z,6.97
2022-10-11T09:25:48.664Z,7.53
2022-10-11T09:28:37.789Z,7.82
2022-10-11T09:31:09.470Z,11.43
2022-10-11T09:33:48.529Z,6.47
2022-10-11T09:36:39.282Z,9.13
2022-10-11T09:39:32.584Z,8.32
2022-10-11T09:42:02.739Z,9.80
2022-10-11T09:44:40.292Z,10.65
2022-10-11T09:47:12.233Z,13.25
2022-10-11T09:49:41.299Z,7.57
2022-10-11T09:52:16.458Z,10.07
2022-10-11T09:54:48.946Z,7.18
2022-10-11T09:57:20.841Z,8.82
2022-10-11T10:00:12.188Z,7.70
2022-10-11T10:02:42.574Z,11.52
2022-10-11T10:05:09.728Z,8.65
2022-10-11T10:07:41.069Z,9.10
2022-10-11T10:10:26.842Z,9.48
2022-10-11T10:13:08.948Z,8.18
2022-10-11T10:15:37.701Z,9.18
2022-10-11T10:18:10.685Z,9.82
2022-10-11T10:20:38.844Z,7.70
2022-10-11T10:23:19.260Z,7.70
2022-10-11T10:25:51.358Z,8.55
2022-10-11T10:28:25.288Z,8.60
2022-10-11T10:30:55.493Z,8.80
2022-10-11T10:33:30.109Z,8.18
2022-10-11T10:36:28.307Z,8.07
2022-10-11T10:39:07.536Z,7.95
2022-10-11T10:41:36.591Z,9.20
2022-10-11T10:44:04.163Z,7.97
2022-10-11T10:46:56.926Z,8.98
2022-10-11T10:49:56.924Z,11.23
2022-10-11T10:52:36.056Z,31.52
2022-10-11T10:55:41.211Z,11.23
2022-10-11T10:58:32.980Z,11.93
2022-10-11T11:01:12.387Z,10.73
2022-10-11T11:03:53.241Z,9.20
2022-10-11T11:06:43.429Z,10.10
2022-10-11T11:09:25.413Z,8.90
2022-10-11T11:12:43.754Z,8.75
2022-10-11T11:15:32.236Z,7.75
2022-10-11T11:18:20.751Z,9.18
2022-10-11T11:20:56.006Z,10.00
2022-10-11T11:23:27.512Z,10.05
2022-10-11T11:26:31.158Z,8.95
2022-10-11T11:29:04.324Z,7.78
2022-10-11T11:32:09.785Z,7.32
2022-10-11T11:34:51.159Z,12.82
2022-10-11T11:37:42.023Z,12.70
2022-10-11T11:40:25.558Z,8.60
2022-10-11T11:43:01.504Z,18.05
2022-10-11T11:45:44.331Z,9.23
2022-10-11T11:48:27.530Z,8.43
2022-10-11T11:51:21.124Z,7.70
2022-10-11T11:54:16.306Z,8.43
2022-10-11T11:57:16.391Z,10.90
2022-10-11T12:00:06.669Z,8.60
2022-10-11T12:02:50.642Z,10.82
2022-10-11T12:08:14.959Z,14.25
2022-10-11T12:10:51.285Z,14.82
2022-10-11T12:13:42.580Z,10.73
2022-10-11T12:16:14.925Z,11.20
2022-10-11T12:18:57.316Z,7.85
2022-10-11T12:21:39.981Z,18.70
2022-10-11T12:24:47.253Z,14.02
2022-10-11T12:27:41.275Z,11.82
2022-10-11T12:30:48.461Z,9.10
2022-10-11T12:33:21.707Z,20.30
2022-10-11T12:35:54.532Z,15.07
2022-10-11T12:38:31.135Z,8.40
2022-10-11T12:41:05.326Z,7.53
2022-10-11T12:43:36.497Z,7.22
2022-10-11T12:46:28.251Z,8.60
2022-10-11T12:49:08.115Z,13.65
2022-10-11T12:52:01.641Z,7.97
2022-10-11T12:54:41.159Z,8.77
2022-10-11T12:57:35.386Z,10.32
2022-10-11T13:00:26.494Z,10.00
2022-10-11T13:02:54.097Z,10.25
2022-10-11T13:05:30.095Z,10.77
2022-10-11T13:08:02.894Z,8.50
2022-10-11T13:10:39.426Z,5.10
2022-10-11T13:13:17.783Z,5.13
2022-10-11T13:15:45.770Z,5.43
2022-10-11T13:18:15.673Z,4.00
2022-10-11T13:20:42.905Z,3.88
2022-10-11T13:23:26.029Z,2.15
2022-10-11T13:25:55.252Z,2.08
2022-10-11T13:28:23.628Z,2.33
2022-10-11T13:30:54.943Z,2.70
2022-10-11T13:33:33.659Z,2.13
2022-10-11T13:36:03.237Z,3.20
2022-10-11T13:38:33.263Z,1.67
2022-10-11T13:41:04.584Z,2.20
2022-10-11T13:43:32.414Z,2.70
2022-10-11T13:46:01.536Z,1.77
2022-10-11T13:48:31.879Z,1.98
2022-10-11T13:51:17.108Z,1.50
2022-10-11T13:54:04.506Z,1.52
2022-10-11T13:56:52.572Z,1.70
2022-10-11T13:59:22.973Z,2.30
2022-10-11T14:01:55.081Z,1.98
2022-10-11T14:04:25.045Z,1.90
2022-10-11T14:07:02.705Z,1.65
2022-10-11T14:09:31.797Z,1.65
2022-10-11T14:12:32.364Z,3.63
2022-10-11T14:15:06.818Z,2.20
2022-10-11T14:17:46.834Z,2.28
2022-10-11T14:20:33.576Z,1.90
2022-10-11T14:23:00.790Z,2.58
2022-10-11T14:25:28.035Z,2.05
2022-10-11T14:27:55.242Z,2.30
2022-10-11T14:30:26.188Z,1.92
2022-10-11T14:32:56.785Z,2.65
2022-10-11T14:35:30.104Z,2.60
2022-10-11T14:37:57.595Z,2.45
2022-10-11T14:40:27.615Z,2.47
2022-10-11T14:42:55.350Z,1.92
2022-10-11T14:45:22.814Z,2.45
2022-10-11T14:47:50.423Z,2.58
2022-10-11T14:50:35.174Z,2.60
2022-10-11T14:53:03.232Z,2.67
2022-10-11T14:55:31.358Z,2.60
2022-10-11T14:57:58.749Z,3.20
2022-10-11T15:00:28.645Z,2.83
2022-10-11T15:02:56.280Z,2.60
2022-10-11T15:05:29.843Z,2.85
2022-10-11T15:08:00.299Z,2.92
2022-10-11T15:10:35.850Z,2.70
2022-10-11T15:13:03.931Z,2.80
2022-10-11T15:15:35.393Z,2.60
2022-10-11T15:18:05.021Z,2.20
2022-10-11T15:20:41.447Z,2.25
2022-10-11T15:23:10.129Z,2.78
2022-10-11T15:25:39.096Z,3.63
2022-10-11T15:28:07.372Z,5.20
2022-10-11T15:30:41.094Z,3.88
2022-10-11T15:33:09.391Z,5.63
2022-10-11T15:35:36.556Z,4.38
2022-10-11T15:38:03.916Z,20.90
2022-10-11T15:40:33.770Z,4.32
2022-10-11T15:43:01.282Z,3.83
2022-10-11T15:45:29.220Z,4.90
2022-10-11T15:47:57.289Z,3.90
2022-10-11T15:50:34.763Z,3.72
2022-10-11T15:53:13.638Z,3.45
2022-10-11T15:55:44.607Z,3.58
2022-10-11T15:58:26.595Z,3.60
2022-10-11T16:00:56.614Z,3.85
2022-10-11T16:03:26.268Z,3.10
2022-10-11T16:05:54.923Z,2.95
2022-10-11T16:08:22.252Z,3.90
2022-10-11T16:10:49.813Z,4.15
2022-10-11T16:13:17.016Z,4.28
2022-10-11T16:15:44.931Z,3.63
2022-10-11T16:18:14.873Z,5.88
2022-10-11T16:20:44.690Z,4.63
2022-10-11T16:23:13.127Z,5.03
2022-10-11T16:25:40.589Z,3.35
2022-10-11T16:28:08.196Z,3.78
2022-10-11T16:30:44.493Z,3.80
2022-10-11T16:33:11.670Z,3.20
2022-10-11T16:35:42.698Z,4.05
2022-10-11T16:38:10.855Z,4.03
2022-10-11T16:40:39.521Z,4.90
2022-10-11T16:43:08.120Z,4.30
2022-10-11T16:45:36.588Z,4.82
2022-10-11T16:48:04.765Z,4.82
2022-10-11T16:50:36.856Z,5.22
2022-10-11T16:53:06.365Z,5.25
2022-10-11T16:55:33.558Z,6.00
2022-10-11T16:58:00.867Z,4.65
2022-10-11T17:00:28.066Z,4.90
2022-10-11T17:02:55.591Z,4.80
2022-10-11T17:05:22.757Z,5.70
2022-10-11T17:07:49.913Z,5.97
2022-10-11T17:10:17.182Z,5.88
2022-10-11T17:12:47.827Z,5.50
2022-10-11T17:15:17.313Z,6.53
2022-10-11T17:17:44.525Z,5.95
2022-10-11T17:20:11.803Z,5.88
2022-10-11T17:22:39.006Z,4.80
2022-10-11T17:25:07.200Z,10.18
2022-10-11T17:27:34.460Z,7.03
2022-10-11T17:30:01.617Z,5.50
2022-10-11T17:32:28.788Z,5.20
2022-10-11T17:34:57.544Z,5.55
2022-10-11T17:37:24.760Z,6.70
2022-10-11T17:39:51.986Z,5.10
2022-10-11T17:42:19.537Z,7.22
2022-10-11T17:44:46.880Z,5.53
2022-10-11T17:47:14.513Z,5.10
2022-10-11T17:49:41.705Z,5.15
2022-10-11T17:52:08.948Z,5.43
2022-10-11T17:54:36.803Z,5.55
2022-10-11T17:57:03.988Z,5.45
2022-10-11T17:59:32.503Z,4.45
2022-10-11T18:01:59.668Z,4.82
2022-10-11T18:04:29.733Z,4.60
2022-10-11T18:06:57.038Z,4.60
2022-10-11T18:09:24.863Z,4.63
2022-10-11T18:11:52.325Z,4.70
2022-10-11T18:14:20.233Z,4.88
2022-10-11T18:16:47.575Z,4.63
2022-10-11T18:19:14.992Z,4.32
2022-10-11T18:21:42.550Z,3.15
2022-10-11T18:24:15.168Z,9.63
2022-10-11T18:26:43.960Z,12.20
2022-10-11T18:29:12.744Z,9.88
2022-10-11T18:31:41.091Z,11.65
2022-10-11T18:34:10.993Z,5.95
2022-10-11T18:36:38.861Z,4.32
2022-10-11T18:39:08.482Z,3.83
2022-10-11T18:41:38.022Z,3.80
2022-10-11T18:44:08.041Z,3.08
2022-10-11T18:46:36.046Z,3.03
2022-10-11T18:49:03.869Z,3.45
2022-10-11T18:51:33.619Z,3.67
2022-10-11T18:54:01.133Z,3.25
2022-10-11T18:56:29.873Z,3.08
2022-10-11T18:58:58.431Z,4.28
2022-10-11T19:01:38.460Z,4.15
2022-10-11T19:04:07.589Z,3.60
2022-10-11T19:06:38.115Z,3.50
2022-10-11T19:09:14.201Z,3.50
2022-10-11T19:11:42.000Z,3.15
2022-10-11T19:14:12.449Z,3.15
2022-10-11T19:16:49.806Z,3.45
2022-10-11T19:19:21.597Z,3.20
2022-10-11T19:21:48.919Z,3.40
2022-10-11T19:24:17.703Z,3.47
2022-10-11T19:26:45.052Z,5.25
2022-10-11T19:29:23.783Z,3.85
2022-10-11T19:31:54.169Z,3.40
2022-10-11T19:34:22.276Z,4.38
2022-10-11T19:36:53.469Z,3.65
2022-10-11T19:39:22.038Z,4.13
2022-10-11T19:41:49.424Z,4.80
2022-10-11T19:44:17.642Z,3.47
2022-10-11T19:46:51.533Z,3.30
2022-10-11T19:49:22.826Z,3.97
2022-10-11T19:51:50.415Z,3.40
2022-10-11T19:54:17.999Z,3.78
2022-10-11T19:56:45.577Z,3.15
2022-10-11T19:59:13.652Z,3.40
2022-10-11T20:01:41.771Z,3.58
2022-10-11T20:04:27.465Z,4.75
2022-10-11T20:06:59.165Z,4.63
2022-10-11T20:09:30.788Z,3.20
2022-10-11T20:11:58.444Z,3.20
2022-10-11T20:14:25.709Z,3.60
2022-10-11T20:16:53.034Z,4.30
2022-10-11T20:19:24.843Z,4.70
2022-10-11T20:21:55.125Z,3.75
2022-10-11T20:24:22.304Z,3.30
2022-10-11T20:26:49.449Z,3.20
2022-10-11T20:29:17.048Z,3.33
2022-10-11T20:31:44.210Z,3.92
2022-10-11T20:34:11.696Z,2.90
2022-10-11T20:36:39.050Z,3.58
2022-10-11T20:39:06.926Z,3.25
2022-10-11T20:41:37.372Z,5.63
2022-10-11T20:44:04.944Z,3.95
2022-10-11T20:46:34.351Z,4.25
2022-10-11T20:49:04.306Z,3.88
2022-10-11T20:51:33.628Z,4.50
2022-10-11T20:54:02.259Z,4.10
2022-10-11T20:56:30.089Z,3.72
2022-10-11T20:58:58.389Z,3.63
2022-10-11T21:01:34.767Z,3.42
2022-10-11T21:04:02.746Z,3.88
2022-10-11T21:06:31.625Z,4.07
2022-10-11T21:08:59.640Z,5.00
2022-10-11T21:11:28.194Z,4.05
2022-10-11T21:14:04.088Z,4.75
2022-10-11T21:16:32.589Z,3.78
2022-10-11T21:19:01.642Z,4.53
2022-10-11T21:21:30.105Z,4.68
2022-10-11T21:23:59.706Z,3.83
2022-10-11T21:26:27.668Z,4.53
2022-10-11T21:28:55.190Z,4.93
2022-10-11T21:31:23.667Z,4.28
2022-10-11T21:33:51.096Z,4.45
2022-10-11T21:36:23.466Z,4.30
2022-10-11T21:38:51.571Z,4.22
2022-10-11T21:41:25.788Z,4.50
2022-10-11T21:43:53.410Z,4.28
2022-10-11T21:46:22.570Z,5.40
2022-10-11T21:48:50.544Z,4.18
2022-10-11T21:51:32.772Z,5.22
2022-10-11T21:54:00.708Z,3.75
2022-10-11T21:56:29.364Z,4.03
2022-10-11T21:58:56.933Z,4.15
2022-10-11T22:01:24.389Z,5.35
2022-10-11T22:03:53.877Z,4.40
2022-10-11T22:06:21.832Z,5.07
2022-10-11T22:08:50.155Z,4.40
2022-10-11T22:11:17.889Z,4.30
2022-10-11T22:13:45.376Z,3.30
2022-10-11T22:16:13.905Z,4.07
2022-10-11T22:18:42.273Z,4.22
2022-10-11T22:21:19.824Z,4.05
2022-10-11T22:23:49.057Z,4.78
2022-10-11T22:26:22.165Z,4.13
2022-10-11T22:28:49.749Z,5.33
2022-10-11T22:31:19.355Z,4.10
2022-10-11T22:33:46.969Z,4.18
2022-10-11T22:36:17.416Z,4.10
2022-10-11T22:38:45.253Z,4.30
2022-10-11T22:41:12.470Z,4.97
2022-10-11T22:43:40.400Z,4.07
2022-10-11T22:46:07.710Z,4.43
2022-10-11T22:48:35.500Z,4.50
2022-10-11T22:51:03.307Z,4.60
2022-10-11T22:53:30.988Z,4.90
2022-10-11T22:55:58.410Z,4.40
2022-10-11T22:58:25.813Z,5.65
2022-10-11T23:00:53.124Z,5.53
2022-10-11T23:03:21.169Z,4.10
2022-10-11T23:05:56.258Z,4.55
2022-10-11T23:08:23.726Z,4.80
2022-10-11T23:10:50.912Z,4.95
2022-10-11T23:13:18.217Z,4.38
2022-10-11T23:15:45.470Z,4.80
2022-10-11T23:18:12.885Z,4.00
2022-10-11T23:20:40.244Z,4.47
2022-10-11T23:23:07.765Z,5.20
2022-10-11T23:25:35.124Z,4.50
2022-10-11T23:28:02.738Z,4.30
2022-10-11T23:30:31.129Z,4.80
2022-10-11T23:32:58.329Z,4.32
2022-10-11T23:35:25.790Z,4.85
2022-10-11T23:37:55.807Z,4.55
2022-10-11T23:40:23.011Z,4.78
2022-10-11T23:42:50.125Z,4.68
2022-10-11T23:45:17.465Z,4.85
2022-10-11T23:47:44.618Z,4.18
2022-10-11T23:50:11.912Z,3.85
2022-10-11T23:52:39.210Z,4.70
2022-10-11T23:55:06.752Z,4.05
2022-10-11T23:57:34.229Z,4.97
